createdAt,value
2022-08-17T00:04:14.261Z,22.60
2022-08-17T00:10:19.397Z,22.60
2022-08-17T00:16:56.105Z,22.60
2022-08-17T00:23:08.907Z,22.60
2022-08-17T00:29:17.875Z,22.60
2022-08-17T00:35:24.514Z,22.60
2022-08-17T00:41:28.752Z,22.60
2022-08-17T00:47:33.363Z,22.60
2022-08-17T00:53:37.880Z,22.50
2022-08-17T01:00:01.807Z,22.40
2022-08-17T01:06:08.127Z,22.40
2022-08-17T01:12:13.096Z,22.40
2022-08-17T01:18:16.165Z,22.30
2022-08-17T01:24:18.351Z,22.20
2022-08-17T01:30:56.628Z,22.10
2022-08-17T01:36:46.280Z,22.10
2022-08-17T01:42:52.041Z,22.00
2022-08-17T01:48:56.674Z,21.90
2022-08-17T01:54:59.604Z,21.90
2022-08-17T02:01:03.046Z,21.80
2022-08-17T02:07:05.327Z,21.80
2022-08-17T02:13:07.858Z,21.70
2022-08-17T02:19:13.938Z,21.60
2022-08-17T02:25:20.944Z,21.60
2022-08-17T02:31:26.516Z,21.40
2022-08-17T02:37:30.400Z,21.40
2022-08-17T02:43:32.917Z,21.30
2022-08-17T02:49:35.805Z,21.30
2022-08-17T02:55:40.667Z,21.20
2022-08-17T03:01:43.492Z,21.30
2022-08-17T03:07:45.952Z,21.30
2022-08-17T03:13:48.249Z,21.20
2022-08-17T03:19:50.507Z,21.20
2022-08-17T03:25:54.084Z,21.20
2022-08-17T03:31:56.774Z,21.30
2022-08-17T03:38:00.778Z,21.30
2022-08-17T03:44:03.498Z,21.30
2022-08-17T03:50:25.962Z,21.40
2022-08-17T03:56:44.089Z,21.50
2022-08-17T04:02:46.807Z,21.70
2022-08-17T04:08:49.003Z,21.90
2022-08-17T04:14:54.372Z,22.20
2022-08-17T04:20:57.483Z,22.50
2022-08-17T04:27:02.240Z,22.80
2022-08-17T04:33:09.571Z,23.20
2022-08-17T04:39:11.934Z,23.60
2022-08-17T04:45:14.090Z,24.00
2022-08-17T04:51:45.477Z,24.30
2022-08-17T04:57:57.222Z,24.60
2022-08-17T05:04:33.177Z,24.80
2022-08-17T05:10:28.474Z,25.20
2022-08-17T05:16:30.882Z,25.60
2022-08-17T05:22:33.155Z,26.10
2022-08-17T05:28:35.361Z,30.00
2022-08-17T05:34:38.231Z,32.80
2022-08-17T05:40:41.007Z,34.40
2022-08-17T05:46:51.189Z,36.00
2022-08-17T05:53:18.201Z,37.00
2022-08-17T05:59:55.089Z,38.00
2022-08-17T06:06:16.210Z,38.60
2022-08-17T06:12:39.480Z,39.20
2022-08-17T06:19:00.240Z,39.40
2022-08-17T06:25:12.679Z,40.10
2022-08-17T06:31:27.356Z,40.40
2022-08-17T06:37:44.099Z,40.80
2022-08-17T06:43:56.598Z,40.90
2022-08-17T06:50:22.489Z,40.70
2022-08-17T06:56:53.713Z,41.30
2022-08-17T07:03:15.992Z,41.30
2022-08-17T07:09:29.980Z,41.80
2022-08-17T07:15:43.553Z,41.90
2022-08-17T07:22:08.650Z,42.40
2022-08-17T07:28:11.122Z,42.80
2022-08-17T07:34:15.155Z,43.50
2022-08-17T07:40:27.458Z,43.60
2022-08-17T07:47:05.721Z,43.60
2022-08-17T07:53:25.076Z,43.40
2022-08-17T07:59:35.619Z,44.10
2022-08-17T08:05:50.939Z,43.50
2022-08-17T08:11:53.540Z,44.20
2022-08-17T08:18:03.247Z,44.00
2022-08-17T08:24:30.862Z,44.30
2022-08-17T08:30:41.166Z,44.50
2022-08-17T08:37:17.592Z,44.30
2022-08-17T08:43:37.897Z,43.60
2022-08-17T08:50:05.617Z,44.10
2022-08-17T08:56:22.224Z,44.40
2022-08-17T09:02:35.170Z,44.70
2022-08-17T09:09:15.920Z,44.00
2022-08-17T09:15:44.377Z,44.00
2022-08-17T09:21:55.285Z,44.20
2022-08-17T09:28:13.779Z,43.50
2022-08-17T09:34:19.713Z,43.30
2022-08-17T09:40:28.822Z,43.30
2022-08-17T09:46:38.050Z,43.10
2022-08-17T09:52:42.615Z,43.50
2022-08-17T09:59:03.906Z,43.70
2022-08-17T10:05:14.355Z,43.70
2022-08-17T10:11:33.242Z,42.70
2022-08-17T10:17:50.815Z,42.40
2022-08-17T10:24:36.291Z,42.30
2022-08-17T10:30:50.785Z,41.50
2022-08-17T10:37:05.122Z,42.10
2022-08-17T10:43:33.195Z,42.00
2022-08-17T10:49:39.738Z,42.20
2022-08-17T10:56:21.722Z,42.20
2022-08-17T11:02:54.680Z,41.40
2022-08-17T11:09:29.448Z,40.20
2022-08-17T11:15:59.933Z,40.90
2022-08-17T11:22:33.659Z,40.50
2022-08-17T11:28:52.466Z,39.70
2022-08-17T11:35:07.073Z,39.00
2022-08-17T11:41:28.580Z,37.40
2022-08-17T11:48:29.106Z,35.90
2022-08-17T11:54:33.371Z,35.60
2022-08-17T12:00:45.440Z,36.20
2022-08-17T12:06:58.902Z,37.50
2022-08-17T12:13:16.989Z,38.90
2022-08-17T12:19:22.168Z,38.90
2022-08-17T12:25:33.530Z,38.50
2022-08-17T12:31:44.839Z,36.70
2022-08-17T12:37:50.671Z,36.70
2022-08-17T12:43:59.258Z,35.60
2022-08-17T12:50:29.603Z,34.90
2022-08-17T12:56:31.822Z,34.80
2022-08-17T13:02:43.076Z,34.70
2022-08-17T13:08:48.403Z,34.90
2022-08-17T13:14:51.196Z,34.30
2022-08-17T13:20:56.303Z,34.00
2022-08-17T13:27:01.768Z,33.90
2022-08-17T13:33:43.415Z,33.60
2022-08-17T13:39:47.740Z,33.50
2022-08-17T13:45:52.198Z,33.50
2022-08-17T13:51:54.597Z,33.30
2022-08-17T13:58:03.967Z,33.20
2022-08-17T14:04:22.631Z,32.80
2022-08-17T14:10:26.051Z,31.50
2022-08-17T14:16:28.278Z,31.30
2022-08-17T14:22:35.009Z,31.40
2022-08-17T14:28:39.109Z,31.60
2022-08-17T14:34:57.973Z,31.60
2022-08-17T14:41:00.218Z,31.70
2022-08-17T14:47:04.683Z,31.70
2022-08-17T14:53:10.622Z,32.00
2022-08-17T14:59:14.580Z,32.30
2022-08-17T15:05:17.794Z,32.30
2022-08-17T15:11:23.325Z,31.80
2022-08-17T15:17:25.571Z,31.60
2022-08-17T15:23:46.971Z,31.80
2022-08-17T15:29:49.616Z,31.80
2022-08-17T15:35:53.848Z,32.00
2022-08-17T15:41:58.393Z,31.90
2022-08-17T15:48:01.387Z,31.70
2022-08-17T15:54:22.133Z,31.80
2022-08-17T16:00:26.552Z,31.80
2022-08-17T16:06:30.184Z,31.70
2022-08-17T16:12:33.153Z,31.40
2022-08-17T16:18:36.722Z,31.10
2022-08-17T16:24:47.666Z,30.70
2022-08-17T16:31:00.023Z,30.50
2022-08-17T16:37:02.418Z,30.40
2022-08-17T16:43:10.844Z,30.30
2022-08-17T16:49:24.447Z,30.10
2022-08-17T16:55:37.205Z,30.00
2022-08-17T17:01:42.113Z,30.00
2022-08-17T17:08:01.112Z,29.80
2022-08-17T17:14:07.746Z,29.60
2022-08-17T17:20:33.549Z,29.30
2022-08-17T17:26:55.702Z,29.10
2022-08-17T17:33:14.101Z,28.80
2022-08-17T17:39:32.609Z,28.60
2022-08-17T17:45:44.530Z,28.40
2022-08-17T17:52:16.804Z,28.20
2022-08-17T17:58:39.427Z,28.00
2022-08-17T18:04:57.064Z,27.80
2022-08-17T18:11:08.133Z,27.70
2022-08-17T18:17:12.882Z,27.60
2022-08-17T18:23:15.106Z,27.50
2022-08-17T18:29:36.841Z,27.40
2022-08-17T18:35:58.888Z,27.40
2022-08-17T18:42:04.302Z,27.40
2022-08-17T18:48:22.361Z,27.40
2022-08-17T18:54:25.437Z,27.30
2022-08-17T19:00:30.609Z,27.40
2022-08-17T19:06:34.406Z,27.40
2022-08-17T19:13:12.361Z,27.50
2022-08-17T19:19:27.151Z,27.60
2022-08-17T19:25:36.073Z,27.70
2022-08-17T19:31:38.441Z,27.80
2022-08-17T19:37:49.837Z,27.80
2022-08-17T19:44:13.691Z,27.80
2022-08-17T19:50:25.723Z,27.80
2022-08-17T19:56:41.734Z,27.70
2022-08-17T20:02:49.967Z,27.60
2022-08-17T20:08:58.287Z,27.40
2022-08-17T20:15:22.973Z,27.20
2022-08-17T20:21:34.313Z,27.10
2022-08-17T20:28:05.568Z,26.90
2022-08-17T20:34:33.597Z,26.70
2022-08-17T20:41:01.455Z,26.70
2022-08-17T20:47:13.383Z,26.80
2022-08-17T20:53:47.229Z,26.70
2022-08-17T20:59:49.451Z,26.50
2022-08-17T21:06:17.533Z,26.40
2022-08-17T21:12:39.927Z,26.30
2022-08-17T21:18:49.618Z,26.20
2022-08-17T21:25:10.489Z,26.10
2022-08-17T21:31:30.389Z,26.00
2022-08-17T21:37:45.493Z,25.90
2022-08-17T21:43:51.296Z,25.90
2022-08-17T21:49:54.973Z,25.80
2022-08-17T21:55:57.490Z,25.80
2022-08-17T22:02:03.260Z,25.70
2022-08-17T22:08:18.623Z,25.60
2022-08-17T22:14:51.720Z,25.50
2022-08-17T22:20:58.716Z,25.50
2022-08-17T22:27:08.927Z,25.40
2022-08-17T22:33:29.894Z,25.30
2022-08-17T22:39:35.379Z,25.30
2022-08-17T22:45:54.898Z,25.20
2022-08-17T22:52:08.288Z,25.10
2022-08-17T22:58:35.379Z,25.00
2022-08-17T23:04:40.443Z,24.90
2022-08-17T23:10:43.378Z,24.80
2022-08-17T23:16:45.713Z,24.80
2022-08-17T23:22:51.835Z,24.80
2022-08-17T23:28:55.154Z,24.80
2022-08-17T23:34:59.601Z,24.80
2022-08-17T23:41:08.338Z,24.80
2022-08-17T23:47:11.770Z,24.90
2022-08-17T23:53:14.249Z,24.90
2022-08-17T23:59:19.010Z,24.90
